Aérodrome :
LOGIN :

S'inscrire | Disclaimer

   EN    FR    IT 

 










Légende :    VFR   VFR Marginal   IFR   IFR Intensif   IFR Très Intensif
Visi : 
Plafond : 
>= 8 km
>= 3000ft
5 à 8 km
1000 à 3000 ft
1500m à 5 km
500 à 1000 ft
800 à 1500m
200 à 500 ft
< 800m
< 200 ft
Symboles :   Orages  Brouillard  Fortes neiges  Fortes précipitations  Vent > 20 kt
SIGMETs :   Divers  Orages  Givrage  Turbulence  Onde Orograph.  Cendres Volcan.







- Altitude de l'aérodrome : 1079 ft


ETIK - Illesheim Air Base

DERNIER METAR :
  • 180958Z AUTO 00000KT 9999 CLR 14/14 A3004 RMK AO2 SLP176 T01370137 $

METARs EXPIRÉS :
  • 180858Z AUTO 00000KT 9999 CLR 10/10 A3005 RMK AO2 SLP181 T00980097 50001 $
  • 180758Z AUTO 00000KT 9999 CLR 07/07 A3006 RMK AO2 SLP187 T00680068 $

TAF TAF ETIK
Valide du 18 à 05h jusqu'au 19 à 11h UTC


180503Z 1805/1911 25003KT 0800 FG VV001 QNH3003INS
TEMPO 1805/1807 2400 BR SKC
BECMG 1806/1807 VRB06KT 9999 NSW SKC QNH3002INS
BECMG 1817/1818 19006KT 6000 BR SKC QNH2998INS
BECMG 1823/1824 VRB06KT 3200 BR SKC QNH2999INS
TEMPO 1900/1903 0400 FG VV001
BECMG 1905/1906 VRB06KT 9999 NSW SKC QNH2997INS TX20/1815Z TN03/1805Z
Pas de NOTAMs connus pour ce terrain.



MET'MAP, la Météo Aéronautique d'un coup d'oeil ! - Copyright ORBIFLY Décembre 2007 - Disclaimer

ORBIFLY MET'MAP TEAM :

Programmation & Développement : Alexandra Zaïnal
Conception & Développement : Baudouin d'Aumeries
Co-Programmation & Développement : Marc-Olivier Méhu
Soutien technique & logistique : Manuel Goepfert

Contact : metmap@orbifly.com




SOURCES & CREDITS :

   NOAA